<?xml version="1.0" encoding="UTF-8" standalone="no" ?>
<gpx xmlns="http://www.topografix.com/GPX/1/1" xmlns:xsi="http://www.w3.org/2001/XMLSchema-instance" xsi:schemaLocation="http://www.topografix.com/GPX/1/1 http://www.topografix.com/GPX/1/1/gpx.xsd" version="1.1" creator="VisuGPX - https://www.visugpx.com">
  <metadata>
    <name>Transcaucasie: Géorgie + Arménie</name>
  </metadata>
  <trk>
    <name><![CDATA[Tour d'Europe: étape 442]]></name>
    <extensions>
      <line xmlns="http://www.topografix.com/GPX/gpx_style/0/2">
        <color>0000FF</color>
        <width>4</width>
      </line>
    </extensions>
    <trkseg>
      <trkpt lat="42.94245" lon="42.18883">
        <ele>644.905131</ele>
        <time>2021-09-13T05:05:04.901Z</time>
      </trkpt>
      <trkpt lat="42.94259" lon="42.1881">
        <ele>644.905131</ele>
        <time>2021-09-13T05:06:06.835Z</time>
      </trkpt>
      <trkpt lat="42.94457" lon="42.18777">
        <ele>649.659673</ele>
        <time>2021-09-13T05:10:10.848Z</time>
      </trkpt>
      <trkpt lat="42.9455" lon="42.18815">
        <ele>639.201151</ele>
        <time>2021-09-13T05:12:11.852Z</time>
      </trkpt>
      <trkpt lat="42.9465" lon="42.19025">
        <ele>623.020757</ele>
        <time>2021-09-13T05:13:46.852Z</time>
      </trkpt>
      <trkpt lat="42.94836" lon="42.19156">
        <ele>608.891116</ele>
        <time>2021-09-13T05:14:27.847Z</time>
      </trkpt>
      <trkpt lat="42.95064" lon="42.19275">
        <ele>602.690095</ele>
        <time>2021-09-13T05:15:03.837Z</time>
      </trkpt>
      <trkpt lat="42.95255" lon="42.19304">
        <ele>611.574529</ele>
        <time>2021-09-13T05:16:04.863Z</time>
      </trkpt>
      <trkpt lat="42.95439" lon="42.19304">
        <ele>623.174342</ele>
        <time>2021-09-13T05:17:23.847Z</time>
      </trkpt>
      <trkpt lat="42.95641" lon="42.19357">
        <ele>622.726602</ele>
        <time>2021-09-13T05:18:42.854Z</time>
      </trkpt>
      <trkpt lat="42.95802" lon="42.19512">
        <ele>617.790709</ele>
        <time>2021-09-13T05:20:02.911Z</time>
      </trkpt>
      <trkpt lat="42.95976" lon="42.19611">
        <ele>620.684157</ele>
        <time>2021-09-13T05:21:03.847Z</time>
      </trkpt>
      <trkpt lat="42.96111" lon="42.19753">
        <ele>635.006985</ele>
        <time>2021-09-13T05:23:42.866Z</time>
      </trkpt>
      <trkpt lat="42.96256" lon="42.19903">
        <ele>649.131558</ele>
        <time>2021-09-13T05:25:11.853Z</time>
      </trkpt>
      <trkpt lat="42.96355" lon="42.20127">
        <ele>655.573154</ele>
        <time>2021-09-13T05:27:02.858Z</time>
      </trkpt>
      <trkpt lat="42.9646" lon="42.2033">
        <ele>669.076578</ele>
        <time>2021-09-13T05:29:17.852Z</time>
      </trkpt>
      <trkpt lat="42.96604" lon="42.20437">
        <ele>676.734594</ele>
        <time>2021-09-13T05:31:17.844Z</time>
      </trkpt>
      <trkpt lat="42.96852" lon="42.20646">
        <ele>693.101028</ele>
        <time>2021-09-13T05:34:17.869Z</time>
      </trkpt>
      <trkpt lat="42.9701" lon="42.20762">
        <ele>704.931034</ele>
        <time>2021-09-13T05:35:57.876Z</time>
      </trkpt>
      <trkpt lat="42.97141" lon="42.20911">
        <ele>718.020101</ele>
        <time>2021-09-13T05:38:02.863Z</time>
      </trkpt>
      <trkpt lat="42.97246" lon="42.21123">
        <ele>720.232978</ele>
        <time>2021-09-13T05:39:38.863Z</time>
      </trkpt>
      <trkpt lat="42.97344" lon="42.21331">
        <ele>733.728431</ele>
        <time>2021-09-13T05:41:49.841Z</time>
      </trkpt>
      <trkpt lat="42.97466" lon="42.21523">
        <ele>752.073009</ele>
        <time>2021-09-13T05:44:15.870Z</time>
      </trkpt>
      <trkpt lat="42.97474" lon="42.21769">
        <ele>765.053947</ele>
        <time>2021-09-13T05:46:26.869Z</time>
      </trkpt>
      <trkpt lat="42.97558" lon="42.21939">
        <ele>764.095376</ele>
        <time>2021-09-13T05:47:59.862Z</time>
      </trkpt>
      <trkpt lat="42.97719" lon="42.22136">
        <ele>749.850121</ele>
        <time>2021-09-13T05:48:40.879Z</time>
      </trkpt>
      <trkpt lat="42.97919" lon="42.22243">
        <ele>737.160925</ele>
        <time>2021-09-13T05:49:20.856Z</time>
      </trkpt>
      <trkpt lat="42.98041" lon="42.22494">
        <ele>739.859457</ele>
        <time>2021-09-13T05:50:15.866Z</time>
      </trkpt>
      <trkpt lat="42.98096" lon="42.22746">
        <ele>746.547549</ele>
        <time>2021-09-13T05:51:25.772Z</time>
      </trkpt>
      <trkpt lat="42.98144" lon="42.22993">
        <ele>758.254677</ele>
        <time>2021-09-13T05:53:02.777Z</time>
      </trkpt>
      <trkpt lat="42.98234" lon="42.23247">
        <ele>762.677582</ele>
        <time>2021-09-13T05:54:31.779Z</time>
      </trkpt>
      <trkpt lat="42.98357" lon="42.23698">
        <ele>750.394377</ele>
        <time>2021-09-13T05:56:23.790Z</time>
      </trkpt>
      <trkpt lat="42.98437" lon="42.23977">
        <ele>748.589664</ele>
        <time>2021-09-13T05:57:12.780Z</time>
      </trkpt>
      <trkpt lat="42.98485" lon="42.24224">
        <ele>756.151785</ele>
        <time>2021-09-13T05:58:40.764Z</time>
      </trkpt>
      <trkpt lat="42.98597" lon="42.24452">
        <ele>755.180857</ele>
        <time>2021-09-13T05:59:46.771Z</time>
      </trkpt>
      <trkpt lat="42.98713" lon="42.24678">
        <ele>763.906426</ele>
        <time>2021-09-13T06:01:04.784Z</time>
      </trkpt>
      <trkpt lat="42.98787" lon="42.24917">
        <ele>773.620089</ele>
        <time>2021-09-13T06:02:25.791Z</time>
      </trkpt>
      <trkpt lat="42.98794" lon="42.25204">
        <ele>767.3648</ele>
        <time>2021-09-13T06:03:18.761Z</time>
      </trkpt>
      <trkpt lat="42.98714" lon="42.25497">
        <ele>761.908307</ele>
        <time>2021-09-13T06:03:58.805Z</time>
      </trkpt>
      <trkpt lat="42.98622" lon="42.25718">
        <ele>759.328057</ele>
        <time>2021-09-13T06:05:30.774Z</time>
      </trkpt>
      <trkpt lat="42.98732" lon="42.25938">
        <ele>762.616896</ele>
        <time>2021-09-13T06:06:24.788Z</time>
      </trkpt>
      <trkpt lat="42.98771" lon="42.26216">
        <ele>764.664416</ele>
        <time>2021-09-13T06:07:29.765Z</time>
      </trkpt>
      <trkpt lat="42.98826" lon="42.26436">
        <ele>769.166755</ele>
        <time>2021-09-13T06:08:53.775Z</time>
      </trkpt>
      <trkpt lat="42.9902" lon="42.26447">
        <ele>782.126591</ele>
        <time>2021-09-13T06:10:40.776Z</time>
      </trkpt>
      <trkpt lat="42.99165" lon="42.26614">
        <ele>777.743118</ele>
        <time>2021-09-13T06:12:16.772Z</time>
      </trkpt>
      <trkpt lat="42.99299" lon="42.26766">
        <ele>778.114496</ele>
        <time>2021-09-13T06:13:41.814Z</time>
      </trkpt>
      <trkpt lat="42.99489" lon="42.26686">
        <ele>786.210321</ele>
        <time>2021-09-13T06:15:29.777Z</time>
      </trkpt>
      <trkpt lat="42.99666" lon="42.26776">
        <ele>791.387113</ele>
        <time>2021-09-13T06:17:05.781Z</time>
      </trkpt>
      <trkpt lat="42.99747" lon="42.27005">
        <ele>801.8238</ele>
        <time>2021-09-13T06:18:55.767Z</time>
      </trkpt>
      <trkpt lat="42.99702" lon="42.27262">
        <ele>805.370386</ele>
        <time>2021-09-13T06:20:20.760Z</time>
      </trkpt>
      <trkpt lat="42.99777" lon="42.27494">
        <ele>793.44232</ele>
        <time>2021-09-13T06:21:02.783Z</time>
      </trkpt>
      <trkpt lat="42.99968" lon="42.2768">
        <ele>787.995907</ele>
        <time>2021-09-13T06:21:44.808Z</time>
      </trkpt>
      <trkpt lat="43.00083" lon="42.27875">
        <ele>799.710999</ele>
        <time>2021-09-13T06:23:37.784Z</time>
      </trkpt>
      <trkpt lat="43.00241" lon="42.28012">
        <ele>805.834917</ele>
        <time>2021-09-13T06:25:25.785Z</time>
      </trkpt>
      <trkpt lat="43.00402" lon="42.28171">
        <ele>813.744945</ele>
        <time>2021-09-13T06:27:17.774Z</time>
      </trkpt>
      <trkpt lat="43.00565" lon="42.28302">
        <ele>820.26576</ele>
        <time>2021-09-13T06:29:05.781Z</time>
      </trkpt>
      <trkpt lat="43.00674" lon="42.28526">
        <ele>831.423983</ele>
        <time>2021-09-13T06:30:53.780Z</time>
      </trkpt>
      <trkpt lat="43.00785" lon="42.28735">
        <ele>833.327962</ele>
        <time>2021-09-13T06:32:16.787Z</time>
      </trkpt>
      <trkpt lat="43.00799" lon="42.28985">
        <ele>840.125542</ele>
        <time>2021-09-13T06:34:08.786Z</time>
      </trkpt>
      <trkpt lat="43.00808" lon="42.29199">
        <ele>853.280824</ele>
        <time>2021-09-13T06:36:30.764Z</time>
      </trkpt>
      <trkpt lat="43.00792" lon="42.29281">
        <ele>867.543565</ele>
        <time>2021-09-13T06:38:55.777Z</time>
      </trkpt>
      <trkpt lat="43.00775" lon="42.2951">
        <ele>879.318874</ele>
        <time>2021-09-13T06:40:39.781Z</time>
      </trkpt>
      <trkpt lat="43.0082" lon="42.29777">
        <ele>884.46482</ele>
        <time>2021-09-13T06:41:46.775Z</time>
      </trkpt>
      <trkpt lat="43.00889" lon="42.30018">
        <ele>895.660796</ele>
        <time>2021-09-13T06:43:37.792Z</time>
      </trkpt>
      <trkpt lat="43.00916" lon="42.30275">
        <ele>903.274349</ele>
        <time>2021-09-13T06:45:54.771Z</time>
      </trkpt>
      <trkpt lat="43.00914" lon="42.30548">
        <ele>906.505173</ele>
        <time>2021-09-13T06:47:12.813Z</time>
      </trkpt>
      <trkpt lat="43.01047" lon="42.30734">
        <ele>904.843166</ele>
        <time>2021-09-13T06:48:08.789Z</time>
      </trkpt>
      <trkpt lat="43.0125" lon="42.30802">
        <ele>892.652099</ele>
        <time>2021-09-13T06:49:09.784Z</time>
      </trkpt>
      <trkpt lat="43.01386" lon="42.30996">
        <ele>877.581898</ele>
        <time>2021-09-13T06:50:11.792Z</time>
      </trkpt>
      <trkpt lat="43.01525" lon="42.3118">
        <ele>871.300776</ele>
        <time>2021-09-13T06:51:14.781Z</time>
      </trkpt>
      <trkpt lat="43.01701" lon="42.31329">
        <ele>870.736695</ele>
        <time>2021-09-13T06:52:14.770Z</time>
      </trkpt>
      <trkpt lat="43.01845" lon="42.31514">
        <ele>866.278633</ele>
        <time>2021-09-13T06:53:25.766Z</time>
      </trkpt>
      <trkpt lat="43.01948" lon="42.31783">
        <ele>863.414016</ele>
        <time>2021-09-13T06:54:29.807Z</time>
      </trkpt>
      <trkpt lat="43.02106" lon="42.31899">
        <ele>888.193312</ele>
        <time>2021-09-13T06:56:13.774Z</time>
      </trkpt>
      <trkpt lat="43.02224" lon="42.32118">
        <ele>888.311168</ele>
        <time>2021-09-13T06:57:24.788Z</time>
      </trkpt>
      <trkpt lat="43.02434" lon="42.32132">
        <ele>869.288969</ele>
        <time>2021-09-13T06:58:05.790Z</time>
      </trkpt>
      <trkpt lat="43.02513" lon="42.32359">
        <ele>858.962307</ele>
        <time>2021-09-13T06:58:47.799Z</time>
      </trkpt>
      <trkpt lat="43.02676" lon="42.32854">
        <ele>871.46353</ele>
        <time>2021-09-13T07:01:34.787Z</time>
      </trkpt>
      <trkpt lat="43.0282" lon="42.33007">
        <ele>882.796511</ele>
        <time>2021-09-13T07:03:14.775Z</time>
      </trkpt>
      <trkpt lat="43.02928" lon="42.33215">
        <ele>894.995905</ele>
        <time>2021-09-13T07:05:17.786Z</time>
      </trkpt>
      <trkpt lat="43.0303" lon="42.33451">
        <ele>895.699926</ele>
        <time>2021-09-13T07:06:48.780Z</time>
      </trkpt>
      <trkpt lat="43.03133" lon="42.3375">
        <ele>883.695828</ele>
        <time>2021-09-13T07:07:31.786Z</time>
      </trkpt>
      <trkpt lat="43.03242" lon="42.33972">
        <ele>879.859225</ele>
        <time>2021-09-13T07:08:17.767Z</time>
      </trkpt>
      <trkpt lat="43.03336" lon="42.34266">
        <ele>873.433766</ele>
        <time>2021-09-13T07:09:05.799Z</time>
      </trkpt>
      <trkpt lat="43.03393" lon="42.34487">
        <ele>882.923867</ele>
        <time>2021-09-13T07:10:47.774Z</time>
      </trkpt>
      <trkpt lat="43.03538" lon="42.34622">
        <ele>876.546441</ele>
        <time>2021-09-13T07:12:10.767Z</time>
      </trkpt>
      <trkpt lat="43.03712" lon="42.34711">
        <ele>897.07718</ele>
        <time>2021-09-13T07:13:27.786Z</time>
      </trkpt>
      <trkpt lat="43.03859" lon="42.34867">
        <ele>901.270246</ele>
        <time>2021-09-13T07:14:49.784Z</time>
      </trkpt>
      <trkpt lat="43.0398" lon="42.35082">
        <ele>896.164054</ele>
        <time>2021-09-13T07:16:13.787Z</time>
      </trkpt>
      <trkpt lat="43.04008" lon="42.35371">
        <ele>885.50409</ele>
        <time>2021-09-13T07:17:02.787Z</time>
      </trkpt>
      <trkpt lat="43.04063" lon="42.35609">
        <ele>889.736607</ele>
        <time>2021-09-13T07:18:02.783Z</time>
      </trkpt>
      <trkpt lat="43.04147" lon="42.35861">
        <ele>898.561218</ele>
        <time>2021-09-13T07:19:51.771Z</time>
      </trkpt>
      <trkpt lat="43.04125" lon="42.3613">
        <ele>905.231908</ele>
        <time>2021-09-13T07:21:08.779Z</time>
      </trkpt>
      <trkpt lat="43.04102" lon="42.36397">
        <ele>921.124083</ele>
        <time>2021-09-13T07:23:00.762Z</time>
      </trkpt>
      <trkpt lat="43.04114" lon="42.36643">
        <ele>927.778427</ele>
        <time>2021-09-13T07:25:13.774Z</time>
      </trkpt>
      <trkpt lat="43.04097" lon="42.36891">
        <ele>941.710799</ele>
        <time>2021-09-13T07:27:15.793Z</time>
      </trkpt>
      <trkpt lat="43.04047" lon="42.37167">
        <ele>943.379726</ele>
        <time>2021-09-13T07:28:24.795Z</time>
      </trkpt>
      <trkpt lat="43.04087" lon="42.37452">
        <ele>928.92627</ele>
        <time>2021-09-13T07:29:20.788Z</time>
      </trkpt>
      <trkpt lat="43.0418" lon="42.37693">
        <ele>899.587603</ele>
        <time>2021-09-13T07:30:18.770Z</time>
      </trkpt>
      <trkpt lat="43.04343" lon="42.3784">
        <ele>854.356406</ele>
        <time>2021-09-13T07:31:41.783Z</time>
      </trkpt>
      <trkpt lat="43.04445" lon="42.38059">
        <ele>900.364728</ele>
        <time>2021-09-13T07:32:34.759Z</time>
      </trkpt>
      <trkpt lat="43.0463" lon="42.38095">
        <ele>942.617284</ele>
        <time>2021-09-13T07:34:03.776Z</time>
      </trkpt>
      <trkpt lat="43.04772" lon="42.37988">
        <ele>923.525281</ele>
        <time>2021-09-13T07:35:13.773Z</time>
      </trkpt>
      <trkpt lat="43.04782" lon="42.38207">
        <ele>927.506077</ele>
        <time>2021-09-13T07:37:10.760Z</time>
      </trkpt>
      <trkpt lat="43.04924" lon="42.38397">
        <ele>955.428437</ele>
        <time>2021-09-13T07:39:21.790Z</time>
      </trkpt>
      <trkpt lat="43.05013" lon="42.38617">
        <ele>963.776662</ele>
        <time>2021-09-13T07:41:23.785Z</time>
      </trkpt>
      <trkpt lat="43.05069" lon="42.38865">
        <ele>967.289761</ele>
        <time>2021-09-13T07:43:43.783Z</time>
      </trkpt>
      <trkpt lat="43.05145" lon="42.39094">
        <ele>977.290754</ele>
        <time>2021-09-13T07:45:31.781Z</time>
      </trkpt>
      <trkpt lat="43.05229" lon="42.39326">
        <ele>1000.495951</ele>
        <time>2021-09-13T07:47:31.782Z</time>
      </trkpt>
      <trkpt lat="43.05406" lon="42.39442">
        <ele>1026.485081</ele>
        <time>2021-09-13T07:50:06.757Z</time>
      </trkpt>
      <trkpt lat="43.05518" lon="42.39637">
        <ele>1039.172527</ele>
        <time>2021-09-13T07:52:45.783Z</time>
      </trkpt>
      <trkpt lat="43.05573" lon="42.39863">
        <ele>1050.393292</ele>
        <time>2021-09-13T07:55:17.785Z</time>
      </trkpt>
      <trkpt lat="43.05569" lon="42.40133">
        <ele>1062.595322</ele>
        <time>2021-09-13T07:57:50.782Z</time>
      </trkpt>
      <trkpt lat="43.05663" lon="42.40259">
        <ele>1078.414338</ele>
        <time>2021-09-13T08:00:11.772Z</time>
      </trkpt>
      <trkpt lat="43.05822" lon="42.40402">
        <ele>1096.710065</ele>
        <time>2021-09-13T08:02:57.775Z</time>
      </trkpt>
      <trkpt lat="43.0597" lon="42.40553">
        <ele>1109.155868</ele>
        <time>2021-09-13T08:05:30.757Z</time>
      </trkpt>
      <trkpt lat="43.06033" lon="42.40806">
        <ele>1100.461854</ele>
        <time>2021-09-13T08:06:57.759Z</time>
      </trkpt>
      <trkpt lat="43.06087" lon="42.41071">
        <ele>1089.539671</ele>
        <time>2021-09-13T08:07:52.766Z</time>
      </trkpt>
      <trkpt lat="43.06127" lon="42.41241">
        <ele>1064.496764</ele>
        <time>2021-09-13T08:35:42.178Z</time>
      </trkpt>
      <trkpt lat="43.05959" lon="42.41302">
        <ele>1099.155934</ele>
        <time>2021-09-13T08:40:55.198Z</time>
      </trkpt>
      <trkpt lat="43.05861" lon="42.41558">
        <ele>1101.099515</ele>
        <time>2021-09-13T08:41:54.198Z</time>
      </trkpt>
      <trkpt lat="43.05717" lon="42.41723">
        <ele>1089.647586</ele>
        <time>2021-09-13T08:42:46.192Z</time>
      </trkpt>
      <trkpt lat="43.05575" lon="42.4183">
        <ele>1073.672548</ele>
        <time>2021-09-13T08:43:33.198Z</time>
      </trkpt>
      <trkpt lat="43.05715" lon="42.42015">
        <ele>1066.176908</ele>
        <time>2021-09-13T08:44:28.202Z</time>
      </trkpt>
      <trkpt lat="43.0567" lon="42.42301">
        <ele>1045.485869</ele>
        <time>2021-09-13T08:45:19.229Z</time>
      </trkpt>
      <trkpt lat="43.05682" lon="42.4258">
        <ele>1038.787686</ele>
        <time>2021-09-13T08:46:16.195Z</time>
      </trkpt>
      <trkpt lat="43.05743" lon="42.42828">
        <ele>1052.953759</ele>
        <time>2021-09-13T08:47:20.197Z</time>
      </trkpt>
      <trkpt lat="43.05615" lon="42.42719">
        <ele>1054.738455</ele>
        <time>2021-09-13T08:49:30.191Z</time>
      </trkpt>
      <trkpt lat="43.05437" lon="42.42787">
        <ele>1077.143091</ele>
        <time>2021-09-13T08:51:52.195Z</time>
      </trkpt>
      <trkpt lat="43.05268" lon="42.42887">
        <ele>1094.393966</ele>
        <time>2021-09-13T08:54:24.196Z</time>
      </trkpt>
      <trkpt lat="43.05168" lon="42.43101">
        <ele>1106.599061</ele>
        <time>2021-09-13T08:57:01.202Z</time>
      </trkpt>
      <trkpt lat="43.05229" lon="42.43284">
        <ele>1114.472548</ele>
        <time>2021-09-13T08:58:53.241Z</time>
      </trkpt>
      <trkpt lat="43.05115" lon="42.43379">
        <ele>1107.389885</ele>
        <time>2021-09-13T08:59:57.198Z</time>
      </trkpt>
      <trkpt lat="43.05132" lon="42.43603">
        <ele>1112.257141</ele>
        <time>2021-09-13T09:01:02.197Z</time>
      </trkpt>
      <trkpt lat="43.05213" lon="42.43883">
        <ele>1111.333803</ele>
        <time>2021-09-13T09:01:41.213Z</time>
      </trkpt>
      <trkpt lat="43.05306" lon="42.44156">
        <ele>1098.837313</ele>
        <time>2021-09-13T09:02:29.204Z</time>
      </trkpt>
      <trkpt lat="43.05172" lon="42.44344">
        <ele>1092.030959</ele>
        <time>2021-09-13T09:03:56.219Z</time>
      </trkpt>
      <trkpt lat="43.05057" lon="42.44534">
        <ele>1094.066916</ele>
        <time>2021-09-13T09:04:46.195Z</time>
      </trkpt>
      <trkpt lat="43.05052" lon="42.44793">
        <ele>1092.767974</ele>
        <time>2021-09-13T09:05:30.198Z</time>
      </trkpt>
      <trkpt lat="43.04952" lon="42.45001">
        <ele>1088.740822</ele>
        <time>2021-09-13T09:06:32.199Z</time>
      </trkpt>
      <trkpt lat="43.04767" lon="42.45102">
        <ele>1090.797612</ele>
        <time>2021-09-13T09:07:45.209Z</time>
      </trkpt>
      <trkpt lat="43.0459" lon="42.45261">
        <ele>1096.247358</ele>
        <time>2021-09-13T09:09:01.190Z</time>
      </trkpt>
      <trkpt lat="43.04557" lon="42.45497">
        <ele>1104.96979</ele>
        <time>2021-09-13T09:11:23.196Z</time>
      </trkpt>
      <trkpt lat="43.04736" lon="42.45602">
        <ele>1109.456966</ele>
        <time>2021-09-13T09:12:41.203Z</time>
      </trkpt>
      <trkpt lat="43.04613" lon="42.45678">
        <ele>1114.640741</ele>
        <time>2021-09-13T09:14:27.200Z</time>
      </trkpt>
      <trkpt lat="43.04639" lon="42.4592">
        <ele>1127.471051</ele>
        <time>2021-09-13T09:17:01.198Z</time>
      </trkpt>
      <trkpt lat="43.04632" lon="42.46195">
        <ele>1137.696274</ele>
        <time>2021-09-13T09:18:32.211Z</time>
      </trkpt>
      <trkpt lat="43.04579" lon="42.46435">
        <ele>1134.895995</ele>
        <time>2021-09-13T09:20:17.222Z</time>
      </trkpt>
      <trkpt lat="43.04676" lon="42.46644">
        <ele>1137.312688</ele>
        <time>2021-09-13T09:21:38.215Z</time>
      </trkpt>
      <trkpt lat="43.0473" lon="42.46885">
        <ele>1144.990411</ele>
        <time>2021-09-13T09:22:50.210Z</time>
      </trkpt>
      <trkpt lat="43.04739" lon="42.47134">
        <ele>1148.247409</ele>
        <time>2021-09-13T09:24:10.201Z</time>
      </trkpt>
      <trkpt lat="43.0482" lon="42.47391">
        <ele>1151.464268</ele>
        <time>2021-09-13T09:25:31.187Z</time>
      </trkpt>
      <trkpt lat="43.04826" lon="42.47631">
        <ele>1149.030137</ele>
        <time>2021-09-13T09:26:52.208Z</time>
      </trkpt>
      <trkpt lat="43.04724" lon="42.47846">
        <ele>1146.575522</ele>
        <time>2021-09-13T09:28:11.201Z</time>
      </trkpt>
      <trkpt lat="43.04558" lon="42.47959">
        <ele>1159.101656</ele>
        <time>2021-09-13T09:29:46.199Z</time>
      </trkpt>
      <trkpt lat="43.0449" lon="42.48092">
        <ele>1175.811485</ele>
        <time>2021-09-13T09:31:52.211Z</time>
      </trkpt>
      <trkpt lat="43.04616" lon="42.48278">
        <ele>1193.293955</ele>
        <time>2021-09-13T09:34:09.198Z</time>
      </trkpt>
      <trkpt lat="43.04641" lon="42.48458">
        <ele>1190.781652</ele>
        <time>2021-09-13T09:35:37.226Z</time>
      </trkpt>
      <trkpt lat="43.04486" lon="42.48312">
        <ele>1199.728509</ele>
        <time>2021-09-13T09:38:04.231Z</time>
      </trkpt>
      <trkpt lat="43.04309" lon="42.4824">
        <ele>1213.391389</ele>
        <time>2021-09-13T09:40:38.211Z</time>
      </trkpt>
      <trkpt lat="43.04352" lon="42.48475">
        <ele>1227.618011</ele>
        <time>2021-09-13T09:43:14.205Z</time>
      </trkpt>
      <trkpt lat="43.04429" lon="42.48695">
        <ele>1249.45723</ele>
        <time>2021-09-13T09:45:55.202Z</time>
      </trkpt>
      <trkpt lat="43.04473" lon="42.48827">
        <ele>1264.88918</ele>
        <time>2021-09-13T09:53:04.195Z</time>
      </trkpt>
      <trkpt lat="43.04384" lon="42.4899">
        <ele>1272.159785</ele>
        <time>2021-09-13T09:55:37.196Z</time>
      </trkpt>
      <trkpt lat="43.04388" lon="42.49241">
        <ele>1290.935772</ele>
        <time>2021-09-13T09:57:53.201Z</time>
      </trkpt>
      <trkpt lat="43.04429" lon="42.49497">
        <ele>1311.139584</ele>
        <time>2021-09-13T10:00:22.237Z</time>
      </trkpt>
      <trkpt lat="43.04525" lon="42.4968">
        <ele>1310.811137</ele>
        <time>2021-09-13T10:02:18.205Z</time>
      </trkpt>
      <trkpt lat="43.04696" lon="42.49826">
        <ele>1303.027348</ele>
        <time>2021-09-13T10:03:26.240Z</time>
      </trkpt>
      <trkpt lat="43.04802" lon="42.50057">
        <ele>1296.06982</ele>
        <time>2021-09-13T10:04:16.203Z</time>
      </trkpt>
      <trkpt lat="43.04785" lon="42.50332">
        <ele>1292.838066</ele>
        <time>2021-09-13T10:05:23.204Z</time>
      </trkpt>
      <trkpt lat="43.04704" lon="42.50387">
        <ele>1306.999918</ele>
        <time>2021-09-13T10:07:16.233Z</time>
      </trkpt>
      <trkpt lat="43.04544" lon="42.5027">
        <ele>1326.179108</ele>
        <time>2021-09-13T10:10:06.207Z</time>
      </trkpt>
      <trkpt lat="43.04453" lon="42.50126">
        <ele>1342.741958</ele>
        <time>2021-09-13T10:13:14.196Z</time>
      </trkpt>
      <trkpt lat="43.04453" lon="42.50369">
        <ele>1359.050778</ele>
        <time>2021-09-13T10:16:16.210Z</time>
      </trkpt>
      <trkpt lat="43.04416" lon="42.50367">
        <ele>1370.201308</ele>
        <time>2021-09-13T10:19:16.200Z</time>
      </trkpt>
      <trkpt lat="43.04297" lon="42.50151">
        <ele>1382.748492</ele>
        <time>2021-09-13T10:33:11.216Z</time>
      </trkpt>
      <trkpt lat="43.04133" lon="42.50242">
        <ele>1391.511636</ele>
        <time>2021-09-13T10:35:24.193Z</time>
      </trkpt>
      <trkpt lat="43.03961" lon="42.50163">
        <ele>1412.000186</ele>
        <time>2021-09-13T10:37:28.184Z</time>
      </trkpt>
      <trkpt lat="43.03854" lon="42.5039">
        <ele>1429.571857</ele>
        <time>2021-09-13T10:45:23.190Z</time>
      </trkpt>
      <trkpt lat="43.03922" lon="42.50624">
        <ele>1447.803249</ele>
        <time>2021-09-13T10:47:39.182Z</time>
      </trkpt>
      <trkpt lat="43.03992" lon="42.50863">
        <ele>1458.421195</ele>
        <time>2021-09-13T10:49:34.197Z</time>
      </trkpt>
      <trkpt lat="43.03996" lon="42.51115">
        <ele>1453.374139</ele>
        <time>2021-09-13T10:51:19.240Z</time>
      </trkpt>
      <trkpt lat="43.03892" lon="42.51332">
        <ele>1453.696064</ele>
        <time>2021-09-13T10:53:00.228Z</time>
      </trkpt>
      <trkpt lat="43.0379" lon="42.51568">
        <ele>1458.37687</ele>
        <time>2021-09-13T10:54:19.188Z</time>
      </trkpt>
      <trkpt lat="43.03782" lon="42.51833">
        <ele>1462.901918</ele>
        <time>2021-09-13T10:55:31.209Z</time>
      </trkpt>
      <trkpt lat="43.03705" lon="42.51987">
        <ele>1463.095669</ele>
        <time>2021-09-13T10:56:55.200Z</time>
      </trkpt>
      <trkpt lat="43.03538" lon="42.52089">
        <ele>1465.358433</ele>
        <time>2021-09-13T10:58:32.186Z</time>
      </trkpt>
      <trkpt lat="43.03368" lon="42.52231">
        <ele>1458.494548</ele>
        <time>2021-09-13T10:59:20.198Z</time>
      </trkpt>
      <trkpt lat="43.03241" lon="42.52442">
        <ele>1451.555806</ele>
        <time>2021-09-13T11:00:06.216Z</time>
      </trkpt>
      <trkpt lat="43.03294" lon="42.5271">
        <ele>1455.575142</ele>
        <time>2021-09-13T11:00:48.196Z</time>
      </trkpt>
      <trkpt lat="43.03303" lon="42.52976">
        <ele>1456.899388</ele>
        <time>2021-09-13T11:02:00.182Z</time>
      </trkpt>
      <trkpt lat="43.03165" lon="42.5308">
        <ele>1459.501362</ele>
        <time>2021-09-13T11:03:46.190Z</time>
      </trkpt>
      <trkpt lat="43.03043" lon="42.53218">
        <ele>1465.599177</ele>
        <time>2021-09-13T11:06:02.191Z</time>
      </trkpt>
      <trkpt lat="43.02892" lon="42.53384">
        <ele>1471.179789</ele>
        <time>2021-09-13T11:10:43.178Z</time>
      </trkpt>
      <trkpt lat="43.02749" lon="42.53565">
        <ele>1497.73476</ele>
        <time>2021-09-13T11:13:23.190Z</time>
      </trkpt>
      <trkpt lat="43.02668" lon="42.53772">
        <ele>1512.171701</ele>
        <time>2021-09-13T11:15:53.192Z</time>
      </trkpt>
      <trkpt lat="43.02677" lon="42.54023">
        <ele>1519.587037</ele>
        <time>2021-09-13T11:17:43.190Z</time>
      </trkpt>
      <trkpt lat="43.02671" lon="42.54275">
        <ele>1525.933472</ele>
        <time>2021-09-13T11:19:13.232Z</time>
      </trkpt>
      <trkpt lat="43.02551" lon="42.5446">
        <ele>1513.148956</ele>
        <time>2021-09-13T11:20:23.198Z</time>
      </trkpt>
      <trkpt lat="43.02352" lon="42.54407">
        <ele>1502.686639</ele>
        <time>2021-09-13T11:21:44.189Z</time>
      </trkpt>
      <trkpt lat="43.02316" lon="42.54653">
        <ele>1514.06595</ele>
        <time>2021-09-13T11:22:45.199Z</time>
      </trkpt>
      <trkpt lat="43.02171" lon="42.54852">
        <ele>1515.062251</ele>
        <time>2021-09-13T11:24:08.191Z</time>
      </trkpt>
      <trkpt lat="43.02155" lon="42.5514">
        <ele>1510.470424</ele>
        <time>2021-09-13T11:25:02.171Z</time>
      </trkpt>
      <trkpt lat="43.02072" lon="42.55193">
        <ele>1484.959037</ele>
        <time>2021-09-13T11:25:56.235Z</time>
      </trkpt>
      <trkpt lat="43.01996" lon="42.55326">
        <ele>1479.46352</ele>
        <time>2021-09-13T11:28:20.190Z</time>
      </trkpt>
      <trkpt lat="43.01993" lon="42.55593">
        <ele>1469.633642</ele>
        <time>2021-09-13T11:28:59.193Z</time>
      </trkpt>
      <trkpt lat="43.02035" lon="42.55866">
        <ele>1452.357209</ele>
        <time>2021-09-13T11:29:45.179Z</time>
      </trkpt>
      <trkpt lat="43.02103" lon="42.56123">
        <ele>1429.406133</ele>
        <time>2021-09-13T11:30:31.189Z</time>
      </trkpt>
      <trkpt lat="43.01952" lon="42.56137">
        <ele>1405.591527</ele>
        <time>2021-09-13T11:31:23.189Z</time>
      </trkpt>
      <trkpt lat="43.02119" lon="42.56308">
        <ele>1389.904125</ele>
        <time>2021-09-13T11:32:24.185Z</time>
      </trkpt>
      <trkpt lat="43.02255" lon="42.56524">
        <ele>1376.287834</ele>
        <time>2021-09-13T11:33:10.184Z</time>
      </trkpt>
      <trkpt lat="43.02408" lon="42.56727">
        <ele>1352.302105</ele>
        <time>2021-09-13T11:34:03.193Z</time>
      </trkpt>
      <trkpt lat="43.02524" lon="42.56978">
        <ele>1333.084286</ele>
        <time>2021-09-13T11:34:53.199Z</time>
      </trkpt>
      <trkpt lat="43.02628" lon="42.57225">
        <ele>1312.744753</ele>
        <time>2021-09-13T11:35:46.184Z</time>
      </trkpt>
      <trkpt lat="43.02774" lon="42.57438">
        <ele>1296.996052</ele>
        <time>2021-09-13T11:36:38.186Z</time>
      </trkpt>
      <trkpt lat="43.02899" lon="42.57663">
        <ele>1293.407572</ele>
        <time>2021-09-13T11:37:25.189Z</time>
      </trkpt>
      <trkpt lat="43.02925" lon="42.57927">
        <ele>1304.37702</ele>
        <time>2021-09-13T11:38:23.189Z</time>
      </trkpt>
      <trkpt lat="43.03059" lon="42.58161">
        <ele>1302.074838</ele>
        <time>2021-09-13T11:39:13.231Z</time>
      </trkpt>
      <trkpt lat="43.02979" lon="42.58185">
        <ele>1302.295619</ele>
        <time>2021-09-13T11:40:24.199Z</time>
      </trkpt>
      <trkpt lat="43.02825" lon="42.58045">
        <ele>1313.018582</ele>
        <time>2021-09-13T11:42:17.196Z</time>
      </trkpt>
      <trkpt lat="43.02671" lon="42.57871">
        <ele>1308.558355</ele>
        <time>2021-09-13T11:44:10.192Z</time>
      </trkpt>
      <trkpt lat="43.02512" lon="42.57714">
        <ele>1301.322044</ele>
        <time>2021-09-13T11:45:21.182Z</time>
      </trkpt>
      <trkpt lat="43.02391" lon="42.57508">
        <ele>1305.422102</ele>
        <time>2021-09-13T11:46:50.191Z</time>
      </trkpt>
      <trkpt lat="43.02271" lon="42.57304">
        <ele>1318.879939</ele>
        <time>2021-09-13T11:48:38.186Z</time>
      </trkpt>
      <trkpt lat="43.02125" lon="42.57156">
        <ele>1325.72415</ele>
        <time>2021-09-13T11:50:14.192Z</time>
      </trkpt>
      <trkpt lat="43.01966" lon="42.56986">
        <ele>1332.9169</ele>
        <time>2021-09-13T11:51:46.189Z</time>
      </trkpt>
      <trkpt lat="43.01823" lon="42.56809">
        <ele>1332.267628</ele>
        <time>2021-09-13T11:52:46.193Z</time>
      </trkpt>
      <trkpt lat="43.01696" lon="42.56602">
        <ele>1329.254727</ele>
        <time>2021-09-13T11:53:57.174Z</time>
      </trkpt>
      <trkpt lat="43.01497" lon="42.56514">
        <ele>1327.60454</ele>
        <time>2021-09-13T11:54:59.204Z</time>
      </trkpt>
      <trkpt lat="43.01287" lon="42.56562">
        <ele>1326.267306</ele>
        <time>2021-09-13T11:55:52.197Z</time>
      </trkpt>
      <trkpt lat="43.01169" lon="42.56775">
        <ele>1326.396367</ele>
        <time>2021-09-13T11:56:43.178Z</time>
      </trkpt>
      <trkpt lat="43.01177" lon="42.5703">
        <ele>1332.421742</ele>
        <time>2021-09-13T11:58:17.244Z</time>
      </trkpt>
      <trkpt lat="43.01193" lon="42.57281">
        <ele>1348.022003</ele>
        <time>2021-09-13T12:00:21.185Z</time>
      </trkpt>
      <trkpt lat="43.01208" lon="42.57532">
        <ele>1360.531807</ele>
        <time>2021-09-13T12:02:34.174Z</time>
      </trkpt>
      <trkpt lat="43.01171" lon="42.578">
        <ele>1376.981835</ele>
        <time>2021-09-13T12:16:18.176Z</time>
      </trkpt>
      <trkpt lat="43.01081" lon="42.57998">
        <ele>1385.27396</ele>
        <time>2021-09-13T12:18:20.187Z</time>
      </trkpt>
      <trkpt lat="43.00977" lon="42.58194">
        <ele>1394.913729</ele>
        <time>2021-09-13T12:20:28.205Z</time>
      </trkpt>
      <trkpt lat="43.00938" lon="42.58439">
        <ele>1395.798665</ele>
        <time>2021-09-13T12:21:55.191Z</time>
      </trkpt>
      <trkpt lat="43.00892" lon="42.58746">
        <ele>1382.046276</ele>
        <time>2021-09-13T12:22:37.194Z</time>
      </trkpt>
      <trkpt lat="43.01013" lon="42.58948">
        <ele>1375.083285</ele>
        <time>2021-09-13T12:23:34.186Z</time>
      </trkpt>
      <trkpt lat="43.01152" lon="42.59114">
        <ele>1371.624888</ele>
        <time>2021-09-13T12:24:19.202Z</time>
      </trkpt>
      <trkpt lat="43.01345" lon="42.59225">
        <ele>1359.42148</ele>
        <time>2021-09-13T12:24:59.181Z</time>
      </trkpt>
      <trkpt lat="43.01398" lon="42.59514">
        <ele>1354.497474</ele>
        <time>2021-09-13T12:25:49.194Z</time>
      </trkpt>
      <trkpt lat="43.01467" lon="42.59774">
        <ele>1358.306286</ele>
        <time>2021-09-13T12:26:58.202Z</time>
      </trkpt>
      <trkpt lat="43.01557" lon="42.59986">
        <ele>1360.468719</ele>
        <time>2021-09-13T12:28:16.205Z</time>
      </trkpt>
      <trkpt lat="43.01625" lon="42.60243">
        <ele>1362.962087</ele>
        <time>2021-09-13T12:29:23.199Z</time>
      </trkpt>
      <trkpt lat="43.01621" lon="42.60475">
        <ele>1357.522696</ele>
        <time>2021-09-13T12:30:58.183Z</time>
      </trkpt>
      <trkpt lat="43.01525" lon="42.60709">
        <ele>1346.511473</ele>
        <time>2021-09-13T12:32:02.225Z</time>
      </trkpt>
      <trkpt lat="43.01462" lon="42.60957">
        <ele>1339.849345</ele>
        <time>2021-09-13T12:32:45.202Z</time>
      </trkpt>
      <trkpt lat="43.01483" lon="42.61233">
        <ele>1331.993939</ele>
        <time>2021-09-13T12:33:26.211Z</time>
      </trkpt>
      <trkpt lat="43.01422" lon="42.61488">
        <ele>1319.784441</ele>
        <time>2021-09-13T12:34:14.187Z</time>
      </trkpt>
      <trkpt lat="43.01384" lon="42.61726">
        <ele>1320.049979</ele>
        <time>2021-09-13T12:35:14.196Z</time>
      </trkpt>
      <trkpt lat="43.01322" lon="42.62003">
        <ele>1329.182153</ele>
        <time>2021-09-13T12:36:42.178Z</time>
      </trkpt>
      <trkpt lat="43.01304" lon="42.62262">
        <ele>1336.432606</ele>
        <time>2021-09-13T12:38:17.199Z</time>
      </trkpt>
      <trkpt lat="43.01416" lon="42.62475">
        <ele>1343.024646</ele>
        <time>2021-09-13T12:40:00.235Z</time>
      </trkpt>
      <trkpt lat="43.01382" lon="42.62732">
        <ele>1350.950142</ele>
        <time>2021-09-13T12:41:47.194Z</time>
      </trkpt>
      <trkpt lat="43.01319" lon="42.6297">
        <ele>1358.084194</ele>
        <time>2021-09-13T12:43:48.197Z</time>
      </trkpt>
      <trkpt lat="43.01257" lon="42.63248">
        <ele>1362.51425</ele>
        <time>2021-09-13T12:45:01.203Z</time>
      </trkpt>
      <trkpt lat="43.01308" lon="42.63533">
        <ele>1350.156514</ele>
        <time>2021-09-13T12:45:56.214Z</time>
      </trkpt>
      <trkpt lat="43.01395" lon="42.63784">
        <ele>1339.217058</ele>
        <time>2021-09-13T12:46:40.197Z</time>
      </trkpt>
      <trkpt lat="43.01493" lon="42.64036">
        <ele>1330.408367</ele>
        <time>2021-09-13T12:47:19.189Z</time>
      </trkpt>
      <trkpt lat="43.01615" lon="42.64223">
        <ele>1340.814606</ele>
        <time>2021-09-13T12:48:56.198Z</time>
      </trkpt>
      <trkpt lat="43.01718" lon="42.64436">
        <ele>1350.588304</ele>
        <time>2021-09-13T12:51:10.191Z</time>
      </trkpt>
      <trkpt lat="43.01786" lon="42.64642">
        <ele>1356.946259</ele>
        <time>2021-09-13T12:52:52.185Z</time>
      </trkpt>
      <trkpt lat="43.01796" lon="42.64878">
        <ele>1365.943239</ele>
        <time>2021-09-13T12:54:57.200Z</time>
      </trkpt>
      <trkpt lat="43.01886" lon="42.65102">
        <ele>1374.304093</ele>
        <time>2021-09-13T12:56:55.191Z</time>
      </trkpt>
      <trkpt lat="43.01984" lon="42.65319">
        <ele>1381.712302</ele>
        <time>2021-09-13T12:58:25.191Z</time>
      </trkpt>
      <trkpt lat="43.02054" lon="42.65554">
        <ele>1397.821428</ele>
        <time>2021-09-13T13:00:41.184Z</time>
      </trkpt>
      <trkpt lat="43.02157" lon="42.65755">
        <ele>1408.080705</ele>
        <time>2021-09-13T13:02:40.180Z</time>
      </trkpt>
      <trkpt lat="43.02292" lon="42.65956">
        <ele>1405.221247</ele>
        <time>2021-09-13T13:05:42.195Z</time>
      </trkpt>
      <trkpt lat="43.02438" lon="42.66167">
        <ele>1411.616028</ele>
        <time>2021-09-13T13:06:53.211Z</time>
      </trkpt>
      <trkpt lat="43.02548" lon="42.66372">
        <ele>1412.420892</ele>
        <time>2021-09-13T13:08:14.222Z</time>
      </trkpt>
      <trkpt lat="43.02637" lon="42.66652">
        <ele>1412.605526</ele>
        <time>2021-09-13T13:09:07.198Z</time>
      </trkpt>
      <trkpt lat="43.02732" lon="42.66879">
        <ele>1411.244799</ele>
        <time>2021-09-13T13:10:20.189Z</time>
      </trkpt>
      <trkpt lat="43.02728" lon="42.67068">
        <ele>1402.479477</ele>
        <time>2021-09-13T13:11:16.201Z</time>
      </trkpt>
      <trkpt lat="43.02878" lon="42.67272">
        <ele>1408.458261</ele>
        <time>2021-09-13T13:19:56.220Z</time>
      </trkpt>
      <trkpt lat="43.02996" lon="42.67466">
        <ele>1420.835253</ele>
        <time>2021-09-13T13:21:58.191Z</time>
      </trkpt>
      <trkpt lat="43.03113" lon="42.67658">
        <ele>1430.127586</ele>
        <time>2021-09-13T13:27:03.193Z</time>
      </trkpt>
      <trkpt lat="43.03144" lon="42.67939">
        <ele>1431.61002</ele>
        <time>2021-09-13T13:28:19.227Z</time>
      </trkpt>
      <trkpt lat="43.03159" lon="42.68208">
        <ele>1424.868068</ele>
        <time>2021-09-13T13:29:10.203Z</time>
      </trkpt>
      <trkpt lat="43.03219" lon="42.68466">
        <ele>1418.341727</ele>
        <time>2021-09-13T13:29:54.202Z</time>
      </trkpt>
      <trkpt lat="43.03253" lon="42.68674">
        <ele>1429.666093</ele>
        <time>2021-09-13T13:31:25.198Z</time>
      </trkpt>
      <trkpt lat="43.03327" lon="42.68898">
        <ele>1441.274934</ele>
        <time>2021-09-13T13:33:27.193Z</time>
      </trkpt>
      <trkpt lat="43.03463" lon="42.69089">
        <ele>1439.693968</ele>
        <time>2021-09-13T13:34:41.195Z</time>
      </trkpt>
      <trkpt lat="43.03614" lon="42.69272">
        <ele>1438.906872</ele>
        <time>2021-09-13T13:35:32.197Z</time>
      </trkpt>
      <trkpt lat="43.03701" lon="42.69498">
        <ele>1437.731834</ele>
        <time>2021-09-13T13:36:48.191Z</time>
      </trkpt>
      <trkpt lat="43.03793" lon="42.6975">
        <ele>1443.575645</ele>
        <time>2021-09-13T13:37:51.195Z</time>
      </trkpt>
      <trkpt lat="43.03856" lon="42.69989">
        <ele>1454.856113</ele>
        <time>2021-09-13T13:39:41.180Z</time>
      </trkpt>
      <trkpt lat="43.03959" lon="42.70178">
        <ele>1456.303651</ele>
        <time>2021-09-13T13:41:26.207Z</time>
      </trkpt>
      <trkpt lat="43.03964" lon="42.70281">
        <ele>1443.191183</ele>
        <time>2021-09-13T13:42:38.198Z</time>
      </trkpt>
      <trkpt lat="43.03922" lon="42.70513">
        <ele>1445.278936</ele>
        <time>2021-09-13T13:43:17.186Z</time>
      </trkpt>
      <trkpt lat="43.03969" lon="42.70803">
        <ele>1433.86585</ele>
        <time>2021-09-13T13:45:01.189Z</time>
      </trkpt>
      <trkpt lat="43.04045" lon="42.71046">
        <ele>1421.040152</ele>
        <time>2021-09-13T13:45:47.200Z</time>
      </trkpt>
      <trkpt lat="43.04132" lon="42.71331">
        <ele>1409.216276</ele>
        <time>2021-09-13T13:46:30.198Z</time>
      </trkpt>
      <trkpt lat="43.04204" lon="42.71638">
        <ele>1408.369772</ele>
        <time>2021-09-13T13:47:20.201Z</time>
      </trkpt>
      <trkpt lat="43.04256" lon="42.7188">
        <ele>1429.856963</ele>
        <time>2021-09-13T13:48:54.197Z</time>
      </trkpt>
      <trkpt lat="43.04255" lon="42.72154">
        <ele>1416.481878</ele>
        <time>2021-09-13T13:55:04.213Z</time>
      </trkpt>
      <trkpt lat="43.04112" lon="42.72339">
        <ele>1410.357685</ele>
        <time>2021-09-13T13:56:04.187Z</time>
      </trkpt>
      <trkpt lat="43.04062" lon="42.7258">
        <ele>1413.156693</ele>
        <time>2021-09-13T13:58:16.188Z</time>
      </trkpt>
      <trkpt lat="43.04088" lon="42.72621">
        <ele>1413.156693</ele>
        <time>2021-09-13T14:01:56.570Z</time>
      </trkpt>
    </trkseg>
  </trk>
</gpx>